Map

Track Data

SID SEASON NUMBER BASIN SUBBASIN NAME ISO_TIME NATURE LAT LON WMO_WIND WMO_PRES WMO_AGENCY TRACK_TYPE DIST2LAND LANDFALL IFLAG USA_AGENCY USA_ATCF_ID USA_LAT USA_LON USA_RECORD USA_STATUS USA_WIND USA_PRES USA_SSHS USA_R34_NE USA_R34_SE USA_R34_SW USA_R34_NW USA_R50_NE USA_R50_SE USA_R50_SW USA_R50_NW USA_R64_NE USA_R64_SE USA_R64_SW USA_R64_NW USA_POCI USA_ROCI USA_RMW USA_EYE TOKYO_LAT TOKYO_LON TOKYO_GRADE TOKYO_WIND TOKYO_PRES TOKYO_R50_DIR TOKYO_R50_LONG TOKYO_R50_SHORT TOKYO_R30_DIR TOKYO_R30_LONG TOKYO_R30_SHORT TOKYO_LAND CMA_LAT CMA_LON CMA_CAT CMA_WIND CMA_PRES HKO_LAT HKO_LON HKO_CAT HKO_WIND HKO_PRES NEWDELHI_LAT NEWDELHI_LON NEWDELHI_GRADE NEWDELHI_WIND NEWDELHI_PRES NEWDELHI_CI NEWDELHI_DP NEWDELHI_POCI REUNION_LAT REUNION_LON REUNION_TYPE REUNION_WIND REUNION_PRES REUNION_TNUM REUNION_CI REUNION_RMW REUNION_R34_NE REUNION_R34_SE REUNION_R34_SW REUNION_R34_NW REUNION_R50_NE REUNION_R50_SE REUNION_R50_SW REUNION_R50_NW REUNION_R64_NE REUNION_R64_SE REUNION_R64_SW REUNION_R64_NW BOM_LAT BOM_LON BOM_TYPE BOM_WIND BOM_PRES BOM_TNUM BOM_CI BOM_RMW BOM_R34_NE BOM_R34_SE BOM_R34_SW BOM_R34_NW BOM_R50_NE BOM_R50_SE BOM_R50_SW BOM_R50_NW BOM_R64_NE BOM_R64_SE BOM_R64_SW BOM_R64_NW BOM_ROCI BOM_POCI BOM_EYE BOM_POS_METHOD BOM_PRES_METHOD NADI_LAT NADI_LON NADI_CAT NADI_WIND NADI_PRES WELLINGTON_LAT WELLINGTON_LON WELLINGTON_WIND WELLINGTON_PRES DS824_LAT DS824_LON DS824_STAGE DS824_WIND DS824_PRES TD9636_LAT TD9636_LON TD9636_STAGE TD9636_WIND TD9636_PRES TD9635_LAT TD9635_LON TD9635_WIND TD9635_PRES TD9635_ROCI NEUMANN_LAT NEUMANN_LON NEUMANN_CLASS NEUMANN_WIND NEUMANN_PRES MLC_LAT MLC_LON MLC_CLASS MLC_WIND MLC_PRES USA_GUST BOM_GUST BOM_GUST_PER REUNION_GUST REUNION_GUST_PER USA_SEAHGT USA_SEARAD_NE USA_SEARAD_SE USA_SEARAD_SW USA_SEARAD_NW STORM_SPEED STORM_DIR
1978086S14115 1978 29 SI WA ALBY 1978-03-27 00:00:00 TS -13.7000 115.000 main 548 548 O_________O_O_ jtwc_sh SH291978 -13.7000 115.000 25 -1 -13.7000 115.000 1 25 -13.7000 115.000 TC 15 1006 2 222
1978086S14115 1978 29 SI WA ALBY 1978-03-27 01:00:00 TS -13.7294 114.977 20 1006 bom main 548 548 P_____O___P_P_ SH291978 -13.7333 114.970 25 -1 -13.7000 115.000 20 20 1006 1.00000 -13.7300 114.964 1 25 -13.7355 114.994 TC 15 1005 2 221
1978086S14115 1978 29 SI WA ALBY 1978-03-27 03:00:00 TS -13.7943 114.921 main 560 560 P_____P___P_P_ SH291978 -13.8000 114.908 25 -1 -13.7667 114.921 20 20 1006 -13.7906 114.892 1 25 -13.8050 114.975 TC 17 1005 3 219
1978086S14115 1978 29 SI WA ALBY 1978-03-27 04:00:00 TS -13.8266 114.892 20 1006 bom main 560 560 P_____O___P_P_ SH291978 -13.8333 114.874 25 -1 -13.8000 114.900 20 20 1006 1.00000 -13.8215 114.855 1 25 -13.8383 114.958 TC 18 1005 3 220
1978086S14115 1978 29 SI WA ALBY 1978-03-27 06:00:00 TS -13.8908 114.839 main 571 571 O_____P__OP_O_ jtwc_sh SH291978 -13.9000 114.800 25 -1 -13.8667 114.902 20 20 1005 -13.9000 114.900 TC 20 1005 -13.8850 114.777 1 25 -13.9000 114.900 TC 20 1005 3 220
1978086S14115 1978 29 SI WA ALBY 1978-03-27 07:00:00 TS -13.9230 114.808 20 1005 bom main 571 571 P_____O__PP_P_ SH291978 -13.9333 114.758 25 -1 -13.9000 114.900 20 20 1005 1.00000 -13.9279 114.866 TC 20 1004 -13.9179 114.737 1 25 -13.9281 114.856 TC 20 1004 3 229
1978086S14115 1978 29 SI WA ALBY 1978-03-27 09:00:00 TS -13.9877 114.724 main 582 582 P_____P__PP_P_ SH291978 -14.0000 114.665 25 -1 -13.9667 114.855 20 20 1005 -13.9874 114.787 TC 20 1004 -13.9869 114.649 1 25 -13.9850 114.737 TC 20 1004 3 233
1978086S14115 1978 29 SI WA ALBY 1978-03-27 10:00:00 TS -14.0214 114.672 20 1005 bom main 582 582 P_____O__PP_P_ SH291978 -14.0333 114.613 25 -1 -14.0000 114.800 20 20 1005 1.00000 -14.0209 114.737 TC 20 1004 -14.0231 114.602 1 25 -14.0175 114.665 TC 20 1004 4 240
1978086S14115 1978 29 SI WA ALBY 1978-03-27 12:00:00 TS -14.0944 114.534 main 593 593 O_____P__OO_O_ jtwc_sh SH291978 -14.1000 114.500 25 -1 -14.0667 114.603 20 23 1004 -14.1000 114.600 TC 20 1004 -14.1000 114.500 1 25 -14.1000 114.500 TC 20 1004 5 241
1978086S14115 1978 29 SI WA ALBY 1978-03-27 13:00:00 TS -14.1354 114.455 25 1004 bom main 593 593 P_____O__PP_P_ SH291978 -14.1307 114.439 25 -1 -14.1000 114.500 20 25 1004 1.50000 -14.1470 114.509 TC 20 1004 -14.1408 114.445 1 25 -14.1632 114.401 TC 20 1004 5 241
1978086S14115 1978 29 SI WA ALBY 1978-03-27 15:00:00 TS -14.2199 114.300 main 605 605 P_____P__PP_P_ SH291978 -14.1925 114.307 25 -1 -14.1508 114.377 20 25 1004 -14.2501 114.300 TC 20 1004 -14.2259 114.326 1 26 -14.3076 114.185 TC 20 1004 5 240
1978086S14115 1978 29 SI WA ALBY 1978-03-27 16:00:00 TS -14.2671 114.219 25 1004 bom main 617 617 P_____O__PP_P_ SH291978 -14.2254 114.239 25 -1 -14.2000 114.300 20 25 1004 1.50000 -14.3026 114.193 TC 20 1004 -14.2696 114.263 1 26 -14.3796 114.079 TC 20 1004 6 238
1978086S14115 1978 29 SI WA ALBY 1978-03-27 18:00:00 TS -14.3771 114.042 main 630 630 O_____P__OP_O_ jtwc_sh SH291978 -14.3000 114.100 25 -1 -14.4050 114.021 20 25 1004 -14.4000 114.000 TC 20 1004 -14.3575 114.130 1 27 -14.5000 113.900 TC 20 1004 6 236
1978086S14115 1978 29 SI WA ALBY 1978-03-27 19:00:00 TS -14.4292 113.969 25 1004 bom main 630 630 P_____O__PP_P_ SH291978 -14.3495 114.036 25 -1 -14.5000 113.900 20 25 1004 1.50000 -14.4416 113.933 TC 20 1003 -14.4010 114.061 1 27 -14.5337 113.849 TC 20 1003 4 233
1978086S14115 1978 29 SI WA ALBY 1978-03-27 21:00:00 TS -14.5122 113.861 main 642 642 P_____P__PP_P_ SH291978 -14.4575 113.908 27 -1 -14.5854 113.817 20 25 1003 -14.5149 113.827 TC 22 1003 -14.4853 113.919 1 28 -14.5724 113.785 TC 22 1003 4 233
1978086S14115 1978 29 SI WA ALBY 1978-03-27 22:00:00 TS -14.5459 113.812 25 1003 bom main 644 644 P_____O__PP_P_ SH291978 -14.5103 113.841 28 -1 -14.6000 113.800 20 25 1003 1.50000 -14.5466 113.784 TC 23 1002 -14.5254 113.847 1 29 -14.5829 113.761 TC 23 1002 3 240
1978086S14115 1978 29 SI WA ALBY 1978-03-28 00:00:00 TS -14.5996 113.707 main 656 656 O_____P__OO_O_ jtwc_sh SH291978 -14.6000 113.700 30 -1 -14.5975 113.741 20 25 1002 -14.6000 113.700 TC 25 1002 -14.6000 113.700 1 30 -14.6000 113.700 TC 25 1002 4 246
1978086S14115 1978 29 SI WA ALBY 1978-03-28 01:00:00 TS -14.6182 113.644 25 1002 bom main 658 658 P_____O__PP_P_ SH291978 -14.6255 113.620 30 -1 -14.6000 113.700 20 25 1002 1.50000 1.50000 -14.6197 113.655 TC 25 1001 -14.6243 113.625 1 30 -14.6140 113.647 TC 25 1001 4 253
1978086S14115 1978 29 SI WA ALBY 1978-03-28 03:00:00 TS -14.6569 113.505 main 671 671 P_____P__PP_P_ SH291978 -14.6575 113.450 30 -1 -14.6691 113.572 20 25 1001 -14.6500 113.565 TC 27 1001 -14.6650 113.470 1 30 -14.6425 113.522 TC 27 1001 4 255
1978086S14115 1978 29 SI WA ALBY 1978-03-28 04:00:00 TS -14.6742 113.431 25 1001 bom main 673 673 P_____O__PP_P_ SH291978 -14.6696 113.364 30 -1 -14.7000 113.500 20 25 1001 2.00000 -14.6642 113.516 TC 28 1000 -14.6833 113.391 1 30 -14.6588 113.452 TC 28 1000 4 258
1978086S14115 1978 29 SI WA ALBY 1978-03-28 06:00:00 TS -14.7029 113.284 main 675 675 O_____P__OP_O_ jtwc_sh SH291978 -14.7000 113.200 30 -1 -14.6975 113.367 20 25 1000 -14.7000 113.400 TC 30 1000 -14.7201 113.235 1 30 -14.7000 113.300 TC 30 1000 4 257
1978086S14115 1978 29 SI WA ALBY 1978-03-28 07:00:00 TS -14.7230 113.210 25 1000 bom main 678 678 P_____O__PP_P_ SH291978 -14.7224 113.128 30 -1 -14.7000 113.300 20 25 1000 2.00000 -14.7276 113.325 TC 30 999 -14.7405 113.157 1 30 -14.7250 113.220 TC 30 999 5 250
1978086S14115 1978 29 SI WA ALBY 1978-03-28 09:00:00 TS -14.7806 113.062 main 691 691 P_____P__PP_P_ SH291978 -14.7775 112.992 30 -1 -14.7612 113.175 20 28 998 -14.7925 113.158 TC 32 999 -14.7901 113.007 1 30 -14.7850 113.050 TC 32 999 5 246
1978086S14115 1978 29 SI WA ALBY 1978-03-28 10:00:00 TS -14.8155 112.987 30 998 bom main 694 694 P_____O__PP_P_ SH291978 -14.8121 112.928 30 -1 -14.8000 113.100 20 30 998 2.50000 -14.8279 113.070 TC 33 998 -14.8210 112.935 1 30 -14.8200 112.964 TC 33 998 5 243
1978086S14115 1978 29 SI WA ALBY 1978-03-28 12:00:00 TS -14.8944 112.833 main 710 710 O_____P__OO_O_ jtwc_sh SH291978 -14.9000 112.800 30 -1 -14.8667 112.898 20 30 998 -14.9000 112.900 TC 35 998 -14.9000 112.800 1 30 -14.9000 112.800 TC 35 998 5 241
1978086S14115 1978 29 SI WA ALBY 1978-03-28 13:00:00 TS -14.9366 112.757 30 998 bom main 710 710 P_____O__PP_P_ SH291978 -14.9526 112.728 30 -1 -14.9000 112.800 20 30 998 2.50000 -14.9228 112.825 TC 35 997 -14.9549 112.736 1 30 -14.9364 112.722 TC 35 997 5 236
1978086S14115 1978 29 SI WA ALBY 1978-03-28 15:00:00 TS -15.0309 112.618 main 727 727 P_____P__PP_P_ SH291978 -15.0775 112.585 30 -1 -14.9588 112.661 20 30 998 -14.9700 112.685 TC 35 997 -15.0818 112.616 1 31 -15.0200 112.577 TC 35 997 5 232
1978086S14115 1978 29 SI WA ALBY 1978-03-28 16:00:00 TS -15.0868 112.555 30 998 bom main 738 738 P_____O__PP_P_ SH291978 -15.1479 112.518 30 -1 -15.0000 112.600 20 30 998 2.50000 -15.0017 112.620 TC 35 997 -15.1525 112.560 1 31 -15.0709 112.512 TC 35 997 5 223
1978086S14115 1978 29 SI WA ALBY 1978-03-28 18:00:00 TS -15.2221 112.436 main 753 744 O_____P__OP_O_ jtwc_sh SH291978 -15.3000 112.400 30 -1 -15.1279 112.459 20 30 997 -15.1000 112.500 TC 35 997 -15.3049 112.455 1 32 -15.2000 112.400 TC 35 997 5 217
1978086S14115 1978 29 SI WA ALBY 1978-03-28 19:00:00 TS -15.3027 112.384 30 997 bom main 744 731 P_____O__PP_P_ SH291978 -15.3802 112.353 30 -1 -15.2000 112.400 20 30 997 2.50000 -15.1824 112.439 TC 35 997 -15.3852 112.406 1 32 -15.2881 112.353 TC 35 997 6 208
1978086S14115 1978 29 SI WA ALBY 1978-03-28 21:00:00 TS -15.4743 112.301 main 731 721 P_____P__PP_P_ SH291978 -15.5500 112.277 32 -1 -15.3175 112.328 20 30 997 -15.3850 112.328 TC 35 997 -15.5506 112.316 1 33 -15.4925 112.278 TC 35 997 6 202
1978086S14115 1978 29 SI WA ALBY 1978-03-28 22:00:00 TS -15.5666 112.266 30 997 bom main 721 718 P_____O__PP_P_ SH291978 -15.6358 112.248 33 -1 -15.4000 112.300 20 30 997 2.50000 -15.4941 112.279 TC 35 997 -15.6342 112.275 1 34 -15.5995 112.248 TC 35 997 6 199
1978086S14115 1978 29 SI WA ALBY 1978-03-29 00:00:00 TS -15.7619 112.204 main 708 708 O_____P__OO_O_ jtwc_sh SH291978 -15.8000 112.200 35 0 -15.6716 112.225 20 30 997 -15.7000 112.200 TC 35 997 -15.8000 112.200 2 35 -15.8000 112.200 TC 35 997 6 195
1978086S14115 1978 29 SI WA ALBY 1978-03-29 01:00:00 TS -15.8442 112.180 30 997 bom main 708 686 P_____O__PP_P_ SH291978 -15.8697 112.180 35 0 -15.8000 112.200 20 30 997 2.50000 2.50000 -15.7754 112.174 TC 35 996 -15.8750 112.165 2 35 -15.8755 112.180 TC 35 996 5 196
1978086S14115 1978 29 SI WA ALBY 1978-03-29 03:00:00 TS -15.9807 112.150 main 689 689 P_____P__PP_P_ SH291978 -16.0000 112.150 35 0 -15.9442 112.202 20 30 996 -15.9075 112.142 TC 37 996 -16.0249 112.103 2 36 -16.0075 112.150 TC 37 996 4 193
1978086S14115 1978 29 SI WA ALBY 1978-03-29 04:00:00 TS -16.0446 112.136 30 996 bom main 689 668 P_____O__PP_P_ SH291978 -16.0642 112.136 35 0 -16.0000 112.200 20 30 996 2.50000 -15.9696 112.130 TC 38 995 -16.0999 112.076 2 36 -16.0696 112.136 TC 38 995 4 195
1978086S14115 1978 29 SI WA ALBY 1978-03-29 06:00:00 TS -16.1792 112.094 main 668 668 O_____P__OP_O_ jtwc_sh SH291978 -16.2000 112.100 35 0 -16.1254 112.139 20 33 995 -16.1000 112.100 TC 40 995 -16.2499 112.027 2 37 -16.2000 112.100 TC 40 995 4 199
1978086S14115 1978 29 SI WA ALBY 1978-03-29 07:00:00 TS -16.2568 112.065 35 995 bom main 657 650 P_____O__PP_P_ SH291978 -16.2803 112.070 35 0 -16.2000 112.100 30 35 995 3.00000 -16.1776 112.072 TC 40 994 -16.3249 112.005 2 37 -16.2776 112.072 TC 40 994 5 199
1978086S14115 1978 29 SI WA ALBY 1978-03-29 09:00:00 TS -16.4271 112.002 main 650 639 P_____P__PP_P_ SH291978 -16.4500 112.000 37 0 -16.4025 112.033 30 35 995 -16.3425 112.008 TC 40 994 -16.4750 111.963 2 38 -16.4425 112.008 TC 40 994 5 199
1978086S14115 1978 29 SI WA ALBY 1978-03-29 10:00:00 TS -16.5129 111.969 35 995 bom main 639 621 P_____O__PP_P_ SH291978 -16.5358 111.964 38 0 -16.5000 112.000 30 35 995 3.00000 -16.4279 111.972 TC 40 994 -16.5500 111.942 2 39 -16.5279 111.972 TC 40 994 5 200
1978086S14115 1978 29 SI WA ALBY 1978-03-29 12:00:00 TS -16.6731 111.906 main 621 621 O_____P__OO_O_ jtwc_sh SH291978 -16.7000 111.900 40 0 -16.6388 111.933 30 38 994 -16.6000 111.900 TC 40 994 -16.7000 111.900 2 40 -16.7000 111.900 TC 40 994 5 200
1978086S14115 1978 29 SI WA ALBY 1978-03-29 13:00:00 TS -16.7481 111.878 40 994 bom main 621 604 P_____O__PP_P_ SH291978 -16.7697 111.880 40 0 -16.7000 111.900 30 40 994 3.00000 -16.6860 111.864 TC 40 993 -16.7774 111.877 2 40 -16.7860 111.864 TC 40 993 5 200
1978086S14115 1978 29 SI WA ALBY 1978-03-29 15:00:00 TS -16.8956 111.825 main 604 594 P_____P__PP_P_ SH291978 -16.9000 111.850 40 0 -16.8254 111.833 30 40 993 -16.8575 111.793 TC 42 993 -16.9331 111.833 2 41 -16.9575 111.793 TC 42 993 5 201
1978086S14115 1978 29 SI WA ALBY 1978-03-29 16:00:00 TS -16.9703 111.800 40 993 bom main 594 584 P_____O__PP_P_ SH291978 -16.9642 111.836 40 0 -16.9000 111.800 30 40 993 3.00000 -16.9412 111.759 TC 43 992 -17.0108 111.811 2 41 -17.0412 111.759 TC 43 992 5 195
1978086S14115 1978 29 SI WA ALBY 1978-03-29 18:00:00 TS -17.1279 111.748 main 588 578 O_____P__OP_O_ jtwc_sh SH291978 -17.1000 111.800 40 0 -17.1025 111.725 30 43 992 -17.1000 111.700 TC 45 992 -17.1649 111.765 2 42 -17.2000 111.700 TC 45 992 5 196
1978086S14115 1978 29 SI WA ALBY 1978-03-29 19:00:00 TS -17.2077 111.724 45 992 bom main 578 568 P_____O__PP_P_ SH291978 -17.1803 111.772 40 0 -17.2000 111.700 30 45 992 3.00000 -17.1724 111.680 TC 45 991 -17.2409 111.741 2 42 -17.2724 111.680 TC 45 991 5 195
1978086S14115 1978 29 SI WA ALBY 1978-03-29 21:00:00 TS -17.3572 111.684 main 557 557 P_____P__PP_P_ SH291978 -17.3500 111.708 42 0 -17.3388 111.702 30 48 991 -17.3075 111.650 TC 45 991 -17.3893 111.689 2 43 -17.4075 111.650 TC 45 991 5 193
1978086S14115 1978 29 SI WA ALBY 1978-03-29 22:00:00 TS -17.4295 111.663 50 991 bom main 557 542 P_____O__PP_P_ SH291978 -17.4358 111.672 43 0 -17.4000 111.700 30 50 991 3.50000 -17.3721 111.636 TC 45 990 -17.4614 111.661 2 44 -17.4721 111.636 TC 45 990 5 201
1978086S14115 1978 29 SI WA ALBY 1978-03-30 00:00:00 TS -17.5722 111.606 main 542 542 O_____P__OO_O_ jtwc_sh SH291978 -17.6000 111.600 45 0 -17.5333 111.639 30 50 990 -17.5000 111.600 TC 45 990 -17.6000 111.600 2 45 -17.6000 111.600 TC 45 990 5 201
1978086S14115 1978 29 SI WA ALBY 1978-03-30 01:00:00 TS -17.6422 111.576 50 990 bom main 542 527 P_____O__PP_P_ SH291978 -17.6750 111.569 46 0 -17.6000 111.600 30 50 990 3.50000 3.50000 -17.5667 111.572 TC 46 989 -17.6675 111.571 2 46 -17.6693 111.575 TC 46 989 5 203
1978086S14115 1978 29 SI WA ALBY 1978-03-30 03:00:00 TS -17.7780 111.513 main 527 527 P_____P__PP_P_ SH291978 -17.8150 111.507 50 0 -17.7333 111.533 30 50 987 -17.7000 111.508 TC 50 987 -17.7974 111.510 2 50 -17.8075 111.515 TC 50 987 4 204
1978086S14115 1978 29 SI WA ALBY 1978-03-30 04:00:00 TS -17.8435 111.480 50 987 bom main 527 513 P_____O__PP_P_ SH291978 -17.8800 111.475 51 0 -17.8000 111.500 30 50 987 3.50000 -17.7667 111.472 TC 51 986 -17.8599 111.476 2 51 -17.8746 111.480 TC 51 986 4 208
1978086S14115 1978 29 SI WA ALBY 1978-03-30 06:00:00 TS -17.9689 111.406 main 513 513 O_____P__OP_O_ jtwc_sh SH291978 -18.0000 111.400 55 0 -17.9333 111.433 30 50 984 -17.9000 111.400 TC 55 984 -17.9798 111.402 2 55 -18.0000 111.400 TC 55 984 4 209
1978086S14115 1978 29 SI WA ALBY 1978-03-30 07:00:00 TS -18.0294 111.370 50 984 bom main 513 504 P_____O__PP_P_ SH291978 -18.0557 111.361 56 0 -18.0000 111.400 30 50 984 3.50000 -17.9719 111.375 TC 55 983 -18.0373 111.361 2 56 -18.0557 111.361 TC 55 983 4 212
1978086S14115 1978 29 SI WA ALBY 1978-03-30 09:00:00 TS -18.1460 111.292 main 510 500 P_____P__PP_P_ SH291978 -18.1575 111.272 60 0 -18.1412 111.341 30 50 982 -18.1149 111.322 TC 57 982 -18.1473 111.269 2 60 -18.1575 111.272 TC 57 982 4 216
1978086S14115 1978 29 SI WA ALBY 1978-03-30 10:00:00 TS -18.1997 111.245 50 982 bom main 506 497 P_____O__PP_P_ SH291978 -18.2054 111.221 61 0 -18.2000 111.300 30 50 982 3.50000 -18.1824 111.290 TC 58 981 -18.1999 111.217 2 61 -18.2054 111.221 TC 58 981 4 225
1978086S14115 1978 29 SI WA ALBY 1978-03-30 12:00:00 TS -18.2954 111.129 main 503 503 O_____P__OO_O_ jtwc_sh SH291978 -18.3000 111.100 65 1 -18.2721 111.172 30 53 980 -18.3000 111.200 TC 60 980 -18.3000 111.100 4 65 -18.3000 111.100 TC 60 980 5 231
1978086S14115 1978 29 SI WA ALBY 1978-03-30 13:00:00 TS -18.3416 111.058 55 980 bom main 503 501 P_____O__PP_P_ SH291978 -18.3526 111.028 65 1 -18.3000 111.100 30 55 980 4.00000 -18.3421 111.134 TC 60 979 -18.3497 111.031 4 65 -18.3526 111.028 TC 61 979 5 238
1978086S14115 1978 29 SI WA ALBY 1978-03-30 15:00:00 TS -18.4304 110.903 main 507 499 P_____P__PP_P_ SH291978 -18.4575 110.865 67 1 -18.3587 110.975 30 55 977 -18.4075 110.972 TC 62 977 -18.4436 110.878 4 67 -18.4575 110.865 TC 65 977 5 240
1978086S14115 1978 29 SI WA ALBY 1978-03-30 16:00:00 TS -18.4747 110.819 55 977 bom main 506 504 P_____O__PP_P_ SH291978 -18.5079 110.778 68 1 -18.4000 110.900 30 55 977 4.00000 -18.4363 110.883 TC 63 976 -18.4881 110.795 4 68 -18.5079 110.778 TC 66 976 6 241
1978086S14115 1978 29 SI WA ALBY 1978-03-30 18:00:00 TS -18.5681 110.638 main 511 511 O_____P__OP_O_ jtwc_sh SH291978 -18.6000 110.600 70 1 -18.5358 110.705 30 58 974 -18.5000 110.700 TC 65 974 -18.5727 110.623 4 70 -18.6000 110.600 TC 70 974 6 242
1978086S14115 1978 29 SI WA ALBY 1978-03-30 19:00:00 TS -18.6128 110.548 60 974 bom main 519 511 P_____O__PP_P_ SH291978 -18.6390 110.514 70 1 -18.6000 110.600 30 60 974 4.00000 -18.5469 110.614 TC 65 973 -18.6131 110.534 4 70 -18.6390 110.514 TC 70 973 6 244
1978086S14115 1978 29 SI WA ALBY 1978-03-30 21:00:00 TS -18.6892 110.370 main 518 518 P_____P__PP_P_ SH291978 -18.7075 110.342 72 1 -18.6721 110.392 30 63 972 -18.6500 110.443 TC 67 972 -18.6905 110.356 4 72 -18.7075 110.342 TC 72 972 5 246
1978086S14115 1978 29 SI WA ALBY 1978-03-30 22:00:00 TS -18.7244 110.284 65 972 bom main 526 526 P_____O__PP_P_ SH291978 -18.7388 110.259 73 1 -18.7000 110.300 40 65 972 4.50000 -18.7025 110.359 TC 68 971 -18.7277 110.268 4 73 -18.7388 110.259 TC 73 971 5 245
1978086S14115 1978 29 SI WA ALBY 1978-03-31 00:00:00 TS -18.7944 110.127 main 534 534 O_____P__OO_O_ jtwc_sh SH291978 -18.8000 110.100 75 1 -18.7667 110.161 40 68 970 -18.8000 110.200 TC 70 970 -18.8000 110.100 4 75 -18.8000 110.100 TC 75 970 5 244
1978086S14115 1978 29 SI WA ALBY 1978-03-31 01:00:00 TS -18.8288 110.056 70 970 bom main 534 534 P_____O__PP_P_ SH291978 -18.8333 110.028 76 1 -18.8000 110.100 40 70 970 4.50000 4.50000 -18.8390 110.128 TC 71 969 -18.8342 110.028 4 76 -18.8333 110.028 TC 75 969 4 243
1978086S14115 1978 29 SI WA ALBY 1978-03-31 03:00:00 TS -18.8955 109.921 main 543 543 P_____P__PP_P_ SH291978 -18.9000 109.892 80 1 -18.8667 109.967 40 73 967 -18.9075 109.992 TC 75 967 -18.8989 109.889 4 78 -18.9000 109.892 TC 77 967 4 242
1978086S14115 1978 29 SI WA ALBY 1978-03-31 04:00:00 TS -18.9281 109.856 75 967 bom main 543 543 P_____O__PP_P_ SH291978 -18.9333 109.828 81 1 -18.9000 109.900 40 75 967 4.50000 -18.9387 109.928 TC 76 966 -18.9302 109.823 4 79 -18.9333 109.828 TC 78 966 4 242
1978086S14115 1978 29 SI WA ALBY 1978-03-31 06:00:00 TS -18.9932 109.726 main 552 552 O_____P__OP_O_ jtwc_sh SH291978 -19.0000 109.700 85 2 -18.9667 109.767 40 78 965 -19.0000 109.800 TC 80 965 -18.9923 109.692 4 82 -19.0000 109.700 TC 80 965 4 242
1978086S14115 1978 29 SI WA ALBY 1978-03-31 07:00:00 TS -19.0249 109.662 80 965 bom main 552 552 P_____O__PP_P_ SH291978 -19.0307 109.633 85 2 -19.0000 109.700 40 80 965 5.00000 -19.0333 109.739 TC 80 964 -19.0238 109.628 4 83 -19.0307 109.639 TC 80 964 4 242
1978086S14115 1978 29 SI WA ALBY 1978-03-31 09:00:00 TS -19.0889 109.533 main 563 563 P_____P__PP_P_ SH291978 -19.0925 109.500 87 2 -19.0667 109.567 40 80 962 -19.0999 109.615 TC 82 962 -19.0895 109.499 4 86 -19.0924 109.515 TC 82 962 4 242
1978086S14115 1978 29 SI WA ALBY 1978-03-31 10:00:00 TS -19.1223 109.466 80 962 bom main 563 563 P_____O__PP_P_ SH291978 -19.1254 109.433 88 2 -19.1000 109.500 40 80 962 5.00000 -19.1333 109.549 TC 83 961 -19.1244 109.434 4 87 -19.1254 109.449 TC 83 961 4 241
1978086S14115 1978 29 SI WA ALBY 1978-03-31 12:00:00 TS -19.1944 109.329 main 574 574 O_____P__OO_O_ jtwc_sh SH291978 -19.2000 109.300 90 2 -19.1666 109.375 40 83 960 -19.2000 109.400 TC 85 960 -19.2000 109.300 4 90 -19.2000 109.300 TC 85 960 5 241
1978086S14115 1978 29 SI WA ALBY 1978-03-31 13:00:00 TS -19.2335 109.254 85 960 bom main 574 574 P_____O__PP_P_ SH291978 -19.2443 109.236 90 2 -19.2000 109.300 40 85 960 5.00000 -19.2299 109.311 TC 85 959 -19.2407 109.237 4 90 -19.2417 109.206 TC 86 959 5 241
1978086S14115 1978 29 SI WA ALBY 1978-03-31 15:00:00 TS -19.3160 109.091 main 586 586 P_____P__PP_P_ SH291978 -19.3425 109.107 92 2 -19.2588 109.105 40 88 957 -19.2903 109.114 TC 87 957 -19.3272 109.110 4 92 -19.3351 109.000 TC 90 957 5 241
1978086S14115 1978 29 SI WA ALBY 1978-03-31 16:00:00 TS -19.3620 109.005 90 957 bom main 590 590 P_____O__PP_P_ SH291978 -19.3945 109.041 93 2 -19.3000 109.000 40 90 957 5.50000 -19.3231 109.010 TC 88 956 -19.3729 109.046 4 93 -19.3867 108.895 TC 91 956 6 238
1978086S14115 1978 29 SI WA ALBY 1978-03-31 18:00:00 TS -19.4662 108.834 main 603 603 O_____P__OP_O_ jtwc_sh SH291978 -19.5000 108.900 95 2 -19.4279 108.792 40 90 955 -19.4000 108.800 TC 90 955 -19.4695 108.909 4 95 -19.5000 108.700 TC 95 955 6 236
1978086S14115 1978 29 SI WA ALBY 1978-03-31 19:00:00 TS -19.5231 108.754 90 955 bom main 603 603 P_____O__PP_P_ SH291978 -19.5482 108.828 95 2 -19.5000 108.700 40 90 955 5.50000 -19.4513 108.708 TC 90 954 -19.5203 108.837 4 95 -19.5635 108.630 TC 95 954 6 233
1978086S14115 1978 29 SI WA ALBY 1978-03-31 21:00:00 TS -19.6383 108.594 main 617 611 P_____P__PP_P_ SH291978 -19.6450 108.673 97 3 -19.6333 108.561 40 90 952 -19.5716 108.530 TC 92 952 -19.6270 108.679 4 97 -19.6998 108.507 TC 97 952 6 232
1978086S14115 1978 29 SI WA ALBY 1978-03-31 22:00:00 TS -19.6985 108.511 90 952 bom main 620 620 P_____O__PP_P_ SH291978 -19.6947 108.588 98 3 -19.7000 108.500 40 90 952 5.50000 -19.6386 108.443 TC 93 951 -19.6830 108.592 4 98 -19.7690 108.446 TC 98 951 6 231
1978086S14115 1978 29 SI WA ALBY 1978-04-01 00:00:00 TS -19.8254 108.345 main 632 626 O_____P__PO_O_ jtwc_sh SH291978 -19.8000 108.400 100 3 -19.8333 108.382 40 90 950 -19.7809 108.269 TC 95 950 -19.8000 108.400 4 100 -19.9000 108.300 TC 100 950 6 233
1978086S14115 1978 29 SI WA ALBY 1978-04-01 01:00:00 TS -19.8919 108.241 90 950 bom main 635 635 P_____O__PP_P_ SH291978 -19.8579 108.288 100 3 -19.9000 108.300 40 90 950 5.50000 5.50000 -19.8542 108.181 TC 95 949 -19.8602 108.282 4 100 -19.9531 108.203 TC 100 949 7 238
1978086S14115 1978 29 SI WA ALBY 1978-04-01 03:00:00 TS -20.0193 108.009 main 648 648 P_____P__PP_P_ SH291978 -19.9816 108.038 102 3 -20.0413 108.036 40 93 947 -19.9997 107.998 TC 97 947 -19.9862 108.022 4 102 -20.0500 107.980 TC 102 947 8 241
1978086S14115 1978 29 SI WA ALBY 1978-04-01 04:00:00 TS -20.0798 107.886 95 947 bom main 652 652 P_____O__PP_P_ SH291978 -20.0468 107.902 103 3 -20.1000 107.900 40 95 947 5.50000 -20.0700 107.903 TC 98 946 -20.0516 107.884 4 103 -20.0975 107.857 TC 103 946 8 244
1978086S14115 1978 29 SI WA ALBY 1978-04-01 06:00:00 TS -20.1875 107.649 main 676 676 P_____P__OP_O_ SH291978 -20.1818 107.619 105 3 -20.1642 107.695 40 95 945 -20.2000 107.700 TC 100 945 -20.1859 107.601 4 105 -20.2000 107.600 TC 105 945 7 244
1978086S14115 1978 29 SI WA ALBY 1978-04-01 07:00:00 TS -20.2415 107.528 95 945 bom main 685 681 P_____O__PP_P_ SH291978 -20.2510 107.475 105 3 -20.2000 107.600 40 95 945 5.50000 -20.2506 107.589 TC 100 944 -20.2543 107.458 4 105 -20.2610 107.467 TC 105 944 8 242
1978086S14115 1978 29 SI WA ALBY 1978-04-01 09:00:00 TS -20.3649 107.286 main 696 696 P_____P__PP_P_ SH291978 -20.3910 107.191 107 3 -20.3278 107.416 40 95 943 -20.3467 107.357 TC 102 942 -20.3925 107.178 4 107 -20.3926 107.193 TC 107 942 8 241
1978086S14115 1978 29 SI WA ALBY 1978-04-01 10:00:00 TS -20.4296 107.160 95 943 bom main 706 706 P_____O__PP_P_ SH291978 -20.4611 107.054 108 3 -20.4000 107.300 40 95 943 5.50000 -20.3951 107.239 TC 103 941 -20.4618 107.045 4 108 -20.4613 107.056 TC 108 941 9 242
1978086S14115 1978 29 SI WA ALBY 1978-04-01 12:00:00 TS -20.5647 106.880 main 727 727 O_____P__OO_O_ jtwc_sh SH301978 -20.6000 106.800 110 3 -20.5413 106.962 40 98 940 -20.5000 107.000 TC 105 940 -20.6000 106.800 4 110 -20.6000 106.800 TC 110 940 9 242
1978086S14115 1978 29 SI WA ALBY 1978-04-01 13:00:00 TS -20.6325 106.747 100 940 bom main 747 743 P_____O__PP_P_ SH301978 -20.6666 106.683 110 3 -20.6000 106.800 40 100 940 6.00000 -20.5610 106.875 TC 105 939 -20.6690 106.689 4 110 -20.6666 106.681 TC 110 939 8 240
1978086S14115 1978 29 SI WA ALBY 1978-04-01 15:00:00 TS -20.7551 106.524 main 760 760 P_____P__PP_P_ SH301978 -20.7999 106.466 112 3 -20.6562 106.589 40 100 937 -20.6925 106.628 TC 107 937 -20.8078 106.484 4 111 -20.8000 106.462 TC 112 937 7 238
1978086S14115 1978 29 SI WA ALBY 1978-04-01 16:00:00 TS -20.8223 106.420 100 937 bom main 770 767 P_____O__PP_P_ SH301978 -20.8666 106.368 113 4 -20.7000 106.500 40 100 937 6.00000 -20.7613 106.510 TC 108 936 -20.8772 106.390 4 111 -20.8666 106.365 TC 113 936 7 231
1978086S14115 1978 29 SI WA ALBY 1978-04-01 18:00:00 TS -20.9686 106.236 main 784 784 O_____P__OP_O_ jtwc_sh SH301978 -21.0000 106.200 115 4 -20.8970 106.292 40 103 934 -20.9000 106.300 TC 110 934 -21.0147 106.223 4 112 -21.0000 106.200 TC 115 934 7 228
1978086S14115 1978 29 SI WA ALBY 1978-04-01 19:00:00 TS -21.0432 106.156 105 934 bom main 784 784 P_____O__PP_P_ SH301978 -21.0692 106.125 115 4 -21.0000 106.200 40 105 934 6.00000 -20.9692 106.208 TC 110 933 -21.0823 106.149 4 112 -21.0692 106.128 TC 115 933 6 223
1978086S14115 1978 29 SI WA ALBY 1978-04-01 21:00:00 TS -21.1805 106.026 main 799 799 P_____P__PP_P_ SH301978 -21.2074 106.005 115 4 -21.1388 106.053 40 108 932 -21.1074 106.055 TC 112 932 -21.2142 106.025 4 113 -21.2074 106.012 TC 117 932 5 219
1978086S14115 1978 29 SI WA ALBY 1978-04-01 22:00:00 TS -21.2460 105.976 110 932 bom main 799 796 P_____O__PP_P_ SH301978 -21.2745 105.960 115 4 -21.2000 106.000 40 110 932 6.50000 -21.1745 105.993 TC 113 931 -21.2780 105.975 4 114 -21.2745 105.968 TC 118 931 4 210
1978086S14115 1978 29 SI WA ALBY 1978-04-02 00:00:00 TS -21.3735 105.905 main 804 804 O_____P__OO_O_ jtwc_sh SH301978 -21.4000 105.900 115 4 -21.3412 105.928 40 110 930 -21.3000 105.900 TC 115 930 -21.4000 105.900 4 115 -21.4000 105.900 TC 120 930 4 208
1978086S14115 1978 29 SI WA ALBY 1978-04-02 01:00:00 TS -21.4278 105.876 110 930 bom main 804 802 P_____O__PP_P_ SH301978 -21.4557 105.880 115 4 -21.4000 105.900 40 110 930 6.50000 6.50000 -21.3557 105.858 TC 114 930 -21.4443 105.871 4 115 -21.4557 105.864 TC 120 930 3 206
1978086S14115 1978 29 SI WA ALBY 1978-04-02 03:00:00 TS -21.5196 105.837 main 812 810 P_____P__PP_P_ SH301978 -21.5575 105.870 115 4 -21.4642 105.825 40 110 930 -21.4575 105.805 TC 112 931 -21.5236 105.841 4 115 -21.5575 105.812 TC 120 931 3 198
1978086S14115 1978 29 SI WA ALBY 1978-04-02 04:00:00 TS -21.5638 105.830 110 931 bom main 810 809 P_____O__PP_P_ SH301978 -21.6054 105.876 115 4 -21.5000 105.800 40 110 931 6.50000 -21.5054 105.793 TC 111 931 -21.5613 105.838 4 115 -21.6054 105.799 TC 120 931 3 0
1978086S14115 1978 29 SI WA ALBY 1978-04-02 06:00:00 TS -21.6626 105.840 main 809 799 O_____P__OP_O_ jtwc_sh SH301978 -21.7000 105.900 115 4 -21.6358 105.787 40 110 931 -21.6000 105.800 TC 110 932 -21.6398 105.852 4 115 -21.7000 105.800 TC 120 932 3 0
1978086S14115 1978 29 SI WA ALBY 1978-04-02 07:00:00 TS -21.7087 105.853 110 932 bom main 799 797 P_____O__PP_P_ SH301978 -21.7421 105.908 115 4 -21.7000 105.800 40 110 932 6.50000 -21.6421 105.816 TC 110 932 -21.6834 105.868 4 115 -21.7421 105.816 TC 119 932 3 156
1978086S14115 1978 29 SI WA ALBY 1978-04-02 09:00:00 TS -21.7934 105.900 main 797 797 P_____P__PP_P_ SH301978 -21.8275 105.935 115 4 -21.7642 105.861 40 110 932 -21.7275 105.878 TC 110 933 -21.7861 105.913 4 115 -21.8275 105.878 TC 117 933 3 154
1978086S14115 1978 29 SI WA ALBY 1978-04-02 10:00:00 TS -21.8422 105.930 110 933 bom main 797 784 P_____O__PP_P_ SH301978 -21.8763 105.953 115 4 -21.8000 105.900 40 110 933 6.50000 -21.7763 105.917 TC 110 933 -21.8481 105.940 4 115 -21.8763 105.917 TC 116 933 4 154
1978086S14115 1978 29 SI WA ALBY 1978-04-02 12:00:00 TS -21.9713 105.994 main 784 784 O_____P__OO_O_ jtwc_sh SH301978 -22.0000 106.000 115 4 -21.9279 105.967 40 106 934 -21.9000 106.000 TC 110 935 -22.0000 106.000 4 115 -22.0000 106.000 TC 115 935 4 156
1978086S14115 1978 29 SI WA ALBY 1978-04-02 13:00:00 TS -22.0466 106.023 105 935 bom main 784 771 P_____O__PP_P_ SH301978 -22.0724 106.028 115 4 -22.0000 106.000 40 105 935 6.50000 -21.9750 106.033 TC 109 935 -22.0875 106.017 4 114 -22.0724 106.033 TC 115 935 5 159
1978086S14115 1978 29 SI WA ALBY 1978-04-02 15:00:00 TS -22.2171 106.085 main 771 771 P_____P__PP_P_ SH301978 -22.2475 106.093 115 4 -22.1175 106.067 40 101 935 -22.1550 106.100 TC 107 936 -22.2875 106.059 4 113 -22.2475 106.100 TC 115 936 6 161
1978086S14115 1978 29 SI WA ALBY 1978-04-02 16:00:00 TS -22.3194 106.118 100 936 bom main 771 759 P_____O__PP_P_ SH301978 -22.3521 106.128 115 4 -22.2000 106.100 40 100 936 6.00000 -22.2600 106.133 TC 106 936 -22.4000 106.083 4 113 -22.3521 106.133 TC 115 936 7 166
1978086S14115 1978 29 SI WA ALBY 1978-04-02 18:00:00 TS -22.5663 106.185 main 759 757 O_____P__OP_O_ jtwc_sh SH301978 -22.6000 106.200 115 4 -22.4479 106.167 40 100 936 -22.5000 106.200 TC 105 937 -22.6500 106.141 4 112 -22.6000 106.200 TC 115 937 8 167
1978086S14115 1978 29 SI WA ALBY 1978-04-02 19:00:00 TS -22.7056 106.216 100 937 bom main 757 739 P_____O__PP_P_ SH301978 -22.7386 106.228 114 4 -22.6000 106.200 40 100 937 6.00000 -22.6276 106.233 TC 105 937 -22.7875 106.175 4 112 -22.7412 106.231 TC 114 937 9 168
1978086S14115 1978 29 SI WA ALBY 1978-04-02 21:00:00 TS -23.0167 106.280 main 739 734 P_____P__PP_P_ SH301978 -23.0550 106.285 112 3 -22.9279 106.267 40 100 937 -22.9125 106.300 TC 105 938 -23.0875 106.253 4 111 -23.0625 106.293 TC 112 938 10 170
1978086S14115 1978 29 SI WA ALBY 1978-04-02 22:00:00 TS -23.1855 106.315 100 938 bom main 734 717 P_____O__PP_P_ SH301978 -23.2291 106.318 111 3 -23.1000 106.300 40 100 938 6.00000 -23.0679 106.333 TC 105 938 -23.2500 106.298 4 110 -23.2370 106.326 TC 111 938 11 169
1978086S14115 1978 29 SI WA ALBY 1978-04-03 00:00:00 TS -23.5389 106.394 main 717 714 O_____P__OO_O_ jtwc_sh SH301978 -23.6000 106.400 110 3 -23.4333 106.367 40 100 939 -23.4000 106.400 TC 105 940 -23.6000 106.400 4 110 -23.6000 106.400 TC 110 940 11 168
1978086S14115 1978 29 SI WA ALBY 1978-04-03 01:00:00 TS -23.7112 106.435 100 940 bom main 714 700 P_____O__PP_P_ SH301978 -23.7833 106.453 109 3 -23.6000 106.400 40 100 940 5.50000 6.00000 -23.5640 106.423 TC 104 940 -23.7695 106.442 4 109 -23.7671 106.437 TC 109 940 11 167
1978086S14115 1978 29 SI WA ALBY 1978-04-03 03:00:00 TS -24.0705 106.523 main 699 689 P_____P__PP_P_ SH301978 -24.1700 106.578 107 3 -23.9254 106.459 40 100 941 -23.9124 106.471 TC 102 942 -24.1330 106.535 4 107 -24.1124 106.521 TC 107 942 11 167
1978086S14115 1978 29 SI WA ALBY 1978-04-03 04:00:00 TS -24.2615 106.576 100 942 bom main 688 677 P_____O__PP_P_ SH301978 -24.3733 106.648 106 3 -24.1000 106.500 40 100 942 6.00000 -24.0987 106.502 TC 101 942 -24.3273 106.588 4 106 -24.2962 106.571 TC 106 942 13 164
1978086S14115 1978 29 SI WA ALBY 1978-04-03 06:00:00 TS -24.6714 106.707 main 677 665 O_____P__OP_O_ jtwc_sh SH301978 -24.8000 106.800 105 3 -24.4867 106.628 40 96 943 -24.5000 106.600 TC 100 944 -24.7416 106.713 4 105 -24.7000 106.700 TC 105 944 13 164
1978086S14115 1978 29 SI WA ALBY 1978-04-03 07:00:00 TS -24.8884 106.778 95 944 bom main 665 646 P_____O__PP_P_ SH301978 -25.0140 106.868 104 3 -24.7000 106.700 40 95 944 6.00000 -24.7136 106.672 TC 99 944 -24.9619 106.786 4 104 -24.9271 106.775 TC 104 944 14 163
1978086S14115 1978 29 SI WA ALBY 1978-04-03 09:00:00 TS -25.3495 106.936 main 646 632 P_____P__PP_P_ SH301978 -25.4623 107.013 102 3 -25.1533 106.818 40 91 946 -25.1700 106.855 TC 97 947 -25.4294 106.959 4 102 -25.4199 106.955 TC 102 947 15 162
1978086S14115 1978 29 SI WA ALBY 1978-04-03 10:00:00 TS -25.5936 107.030 90 947 bom main 632 608 P_____O__PP_P_ SH301978 -25.6986 107.097 101 3 -25.4000 106.900 40 90 947 5.50000 -25.4091 106.963 TC 96 947 -25.6769 107.061 4 101 -25.6782 107.060 TC 101 947 16 159
1978086S14115 1978 29 SI WA ALBY 1978-04-03 12:00:00 TS -26.1073 107.259 main 598 587 O_____P__OO_O_ jtwc_sh SH301978 -26.2000 107.300 100 3 -25.9437 107.156 40 90 949 -25.9000 107.200 TC 95 950 -26.2000 107.300 4 100 -26.2000 107.300 TC 100 950 17 158
1978086S14115 1978 29 SI WA ALBY 1978-04-03 13:00:00 TS -26.3545 107.378 90 950 bom main 587 568 P_____O__PP_P_ SH301978 -26.4582 107.414 99 3 -26.2000 107.300 40 90 950 5.50000 -26.1284 107.310 TC 94 950 -26.4508 107.410 4 99 -26.4315 107.421 TC 99 950 16 155
1978086S14115 1978 29 SI WA ALBY 1978-04-03 15:00:00 TS -26.8448 107.638 main 569 553 P_____P__PP_P_ SH301978 -27.0047 107.684 97 3 -26.5871 107.559 40 90 951 -26.5972 107.549 TC 92 952 -26.9778 107.661 4 97 -26.8972 107.692 TC 97 952 17 154
1978086S14115 1978 29 SI WA ALBY 1978-04-03 16:00:00 TS -27.1054 107.786 90 952 bom main 553 534 P_____O__PP_P_ SH301978 -27.2930 107.840 96 3 -26.8000 107.700 40 90 952 5.50000 -26.8468 107.685 TC 91 953 -27.2553 107.804 4 96 -27.1444 107.846 TC 96 953 19 153
1978086S14115 1978 29 SI WA ALBY 1978-04-03 18:00:00 TS -27.6862 108.126 main 537 525 O_____P__OP_O_ jtwc_sh SH301978 -27.9000 108.200 95 2 -27.3758 108.020 40 86 954 -27.4000 108.000 TC 90 955 -27.8417 108.134 4 95 -27.7000 108.200 TC 95 955 20 153
1978086S14115 1978 29 SI WA ALBY 1978-04-03 19:00:00 TS -28.0013 108.311 85 955 bom main 529 519 P_____O__PP_P_ SH301978 -28.2054 108.385 94 2 -27.7000 108.200 40 85 955 5.50000 -27.7183 108.180 TC 89 955 -28.1520 108.324 4 94 -28.0266 108.392 TC 93 955 22 152
1978086S14115 1978 29 SI WA ALBY 1978-04-03 21:00:00 TS -28.6680 108.728 main 526 518 P_____P__PP_P_ SH301978 -28.8466 108.805 92 2 -28.3453 108.579 40 85 956 -28.4124 108.590 TC 87 957 -28.8099 108.764 4 92 -28.7471 108.826 TC 90 957 24 151
1978086S14115 1978 29 SI WA ALBY 1978-04-03 22:00:00 TS -29.0219 108.965 85 957 bom main 515 490 P_____O__PP_P_ SH301978 -29.1845 109.046 91 2 -28.7000 108.800 40 85 957 5.00000 -28.7752 108.816 TC 86 958 -29.1588 109.017 4 91 -29.1282 109.068 TC 88 958 26 148
1978086S14115 1978 29 SI WA ALBY 1978-04-04 00:00:00 TS -29.7662 109.504 main 494 485 O_____P__OO_O_ jtwc_sh SH301978 -29.9000 109.600 90 2 -29.4970 109.322 40 85 959 -29.5000 109.300 TC 85 960 -29.9000 109.600 4 90 -29.9000 109.600 TC 85 960 26 147
1978086S14115 1978 29 SI WA ALBY 1978-04-04 01:00:00 TS -30.1285 109.780 85 960 bom main 481 457 P_____O__PP_P_ SH301978 -30.2635 109.897 89 2 -29.9000 109.600 40 85 960 4.50000 5.00000 -29.8089 109.506 TC 83 960 -30.2931 109.933 4 88 -30.2419 109.850 TC 84 960 27 145
1978086S14115 1978 29 SI WA ALBY 1978-04-04 03:00:00 TS -30.8674 110.385 main 450 426 P_____P__PP_P_ SH301978 -31.0310 110.570 87 2 -30.6719 110.138 40 85 961 -30.4217 109.952 TC 81 962 -31.1195 110.679 4 86 -30.9294 110.402 TC 82 962 28 144
1978086S14115 1978 29 SI WA ALBY 1978-04-04 04:00:00 TS -31.2442 110.721 85 962 bom main 426 384 P_____O__PP_P_ SH301978 -31.4372 110.949 86 2 -31.0000 110.400 51 85 962 -30.7486 110.218 TC 80 963 -31.5498 111.088 4 85 -31.2925 110.722 TC 81 963 30 141
1978086S14115 1978 29 SI WA ALBY 1978-04-04 06:00:00 TS -32.0228 111.479 85 bom main 372 318 O_____I__IP_O_ jtwc_sh SH301978 -32.3000 111.800 85 2 -31.5000 110.900 51 85 964 -31.5000 110.900 TC 77 965 -32.4371 111.972 4 82 -32.1000 111.500 TC 80 965 33 140
1978086S14115 1978 29 SI WA ALBY 1978-04-04 07:00:00 TS -32.5042 111.957 80 965 bom main 304 204 P_____O__PP_P_ SH301978 -32.7580 112.274 83 2 -32.1000 111.500 51 80 965 -31.9524 111.313 TC 76 965 -32.8909 112.442 4 81 -32.5658 111.937 TC 79 965 37 140
1978086S14115 1978 29 SI WA ALBY 1978-04-04 09:00:00 TS -33.4328 112.890 main 195 156 P_____P__PP_P_ SH301978 -33.7153 113.306 80 1 -33.0438 112.348 51 80 966 -32.9631 112.321 TC 73 967 -33.8112 113.430 4 78 -33.5840 112.973 TC 77 967 36 140
1978086S14115 1978 29 SI WA ALBY 1978-04-04 10:00:00 TS -33.8814 113.361 80 967 bom main 147 70 P_____O__PP_P_ SH301978 -34.2074 113.856 78 1 -33.5000 112.800 51 80 967 -33.5022 112.918 TC 72 968 -34.2745 113.944 4 77 -34.1195 113.581 TC 76 968 41 136
1978086S14115 1978 29 SI WA ALBY 1978-04-04 12:00:00 TS -34.8907 114.592 main 72 72 O_____P__OO_O_ jtwc_sh SH301978 -35.2000 115.000 75 1 -34.6399 114.171 51 69 969 -34.6000 114.300 TC 70 970 -35.2000 115.000 4 75 -35.2000 115.000 TC 75 970 43 133
1978086S14115 1978 29 SI WA ALBY 1978-04-04 13:00:00 TS -35.3445 115.305 65 970 bom main 84 84 ______O__P__P_ SH301978 -1 -35.2000 115.000 51 65 970 -35.1409 115.086 TC 66 973 4 -35.6925 115.830 TC 70 973 51 125
1978086S14115 1978 29 SI WA ALBY 1978-04-04 15:00:00 TS -36.3440 117.144 main 134 134 ______P__P__P_ SH301978 -1 -36.1333 116.829 51 58 975 -36.1935 116.821 TC 60 979 4 -36.6674 117.701 TC 62 979 55 123
1978086S14115 1978 29 SI WA ALBY 1978-04-04 16:00:00 TS -36.8458 118.149 55 978 bom main 189 189 ______O__P__P_ SH301978 -1 -36.6000 117.800 51 55 978 -36.7052 117.752 TC 56 982 4 -37.1618 118.698 TC 58 982 57 123
1978086S14115 1978 29 SI WA ALBY 1978-04-04 18:00:00 TS -37.8951 120.161 main 368 368 ______P__O__O_ -1 -37.6390 119.738 51 48 985 -37.7000 119.700 TC 50 989 4 -38.2000 120.700 TC 50 989 59 124
1978086S14115 1978 29 SI WA ALBY 1978-04-04 19:00:00 TS -38.5189 121.252 45 989 bom main 476 476 ______O_____P_ -1 -38.2000 120.700 51 45 989 TC 4 -38.7580 121.667 TC 46 990 59 128
1978086S14115 1978 29 SI WA ALBY 1978-04-04 21:00:00 TS -39.7223 123.148 main 634 634 ______P_____P_ -1 -39.3912 122.569 51 41 996 TC 4 -39.9431 123.534 TC 40 994 58 130
1978086S14115 1978 29 SI WA ALBY 1978-04-04 22:00:00 TS -40.3721 124.135 40 1000 bom main 717 717 ______O_____P_ -1 -40.0000 123.500 51 40 1000 TC 4 -40.5581 124.452 TC 36 996 63 131
1978086S14115 1978 29 SI WA ALBY 1978-04-05 00:00:00 TS -41.8000 126.300 main 909 ____________O_ -1 51 -41.8000 126.300 TC 30 1000 65 131

About IBTrACS Database

This database is a web-friendly format of International Best Track Archive for Climate Stewardship (IBTrACS), a global best track data archive curated by NOAA dating back to 1842.

Updated: 2021-12-06